createdAt,value
2022-08-03T00:05:25.098Z,18.90
2022-08-03T00:15:28.413Z,18.70
2022-08-03T00:25:30.481Z,18.70
2022-08-03T00:35:49.232Z,18.60
2022-08-03T00:45:53.317Z,18.50
2022-08-03T00:55:56.967Z,18.50
2022-08-03T01:06:06.775Z,18.50
2022-08-03T01:16:15.580Z,18.50
2022-08-03T01:26:42.542Z,18.50
2022-08-03T01:36:55.371Z,18.40
2022-08-03T01:46:59.780Z,18.30
2022-08-03T01:57:03.589Z,18.30
2022-08-03T02:07:07.920Z,18.30
2022-08-03T02:17:12.496Z,18.20
2022-08-03T02:27:20.314Z,18.20
2022-08-03T02:37:28.767Z,18.30
2022-08-03T02:47:54.047Z,18.40
2022-08-03T02:57:57.389Z,18.50
2022-08-03T03:08:04.005Z,18.50
2022-08-03T03:18:22.892Z,18.50
2022-08-03T03:28:25.888Z,18.60
2022-08-03T03:38:29.524Z,18.70
2022-08-03T03:48:32.974Z,18.70
2022-08-03T03:58:36.310Z,18.80
2022-08-03T04:08:38.253Z,18.80
2022-08-03T04:18:44.763Z,18.70
2022-08-03T04:28:47.966Z,18.60
2022-08-03T04:39:00.301Z,18.60
2022-08-03T04:49:03.260Z,18.60
2022-08-03T04:59:06.634Z,18.70
2022-08-03T05:09:08.552Z,18.70
2022-08-03T05:19:11.876Z,18.80
2022-08-03T05:29:13.936Z,18.90
2022-08-03T05:39:17.283Z,18.90
2022-08-03T05:49:19.604Z,19.00
2022-08-03T05:59:38.166Z,19.10
2022-08-03T06:10:34.126Z,19.40
2022-08-03T06:20:04.429Z,19.70
2022-08-03T06:30:07.656Z,19.90
2022-08-03T06:40:14.001Z,20.00
2022-08-03T06:50:20.648Z,20.20
2022-08-03T07:00:26.617Z,20.10
2022-08-03T07:10:28.806Z,20.30
2022-08-03T07:20:32.694Z,20.40
2022-08-03T07:30:34.744Z,20.60
2022-08-03T07:40:40.952Z,20.80
2022-08-03T07:50:45.457Z,21.10
2022-08-03T08:00:48.969Z,21.40
2022-08-03T08:10:58.492Z,21.20
2022-08-03T08:21:02.205Z,21.80
2022-08-03T08:31:22.118Z,22.50
2022-08-03T08:41:25.464Z,23.10
2022-08-03T08:51:54.758Z,24.60
2022-08-03T09:01:58.881Z,25.10
2022-08-03T09:12:20.065Z,25.80
2022-08-03T09:22:24.116Z,26.60
2022-08-03T09:32:26.079Z,26.50
2022-08-03T09:42:29.438Z,28.40
2022-08-03T09:52:39.175Z,29.40
2022-08-03T10:03:04.684Z,29.80
2022-08-03T10:13:06.634Z,29.50
2022-08-03T10:23:11.677Z,28.20
2022-08-03T10:33:49.963Z,28.60
2022-08-03T10:43:47.531Z,29.40
2022-08-03T10:53:54.651Z,31.00
2022-08-03T11:04:18.527Z,30.40
2022-08-03T11:14:22.311Z,29.30
2022-08-03T11:25:01.589Z,29.40
2022-08-03T11:35:11.839Z,29.60
2022-08-03T11:45:15.388Z,29.90
2022-08-03T11:55:19.305Z,30.10
2022-08-03T12:05:33.772Z,29.30
2022-08-03T12:15:36.351Z,29.30
2022-08-03T12:25:41.554Z,29.30
2022-08-03T12:35:52.303Z,29.40
2022-08-03T12:46:19.320Z,29.10
2022-08-03T12:56:21.355Z,28.80
2022-08-03T13:06:25.893Z,28.50
2022-08-03T13:16:27.888Z,28.90
2022-08-03T13:26:31.255Z,29.20
2022-08-03T13:36:52.933Z,29.00
2022-08-03T13:46:56.512Z,29.00
2022-08-03T13:58:01.146Z,29.20
2022-08-03T14:07:21.860Z,29.30
2022-08-03T14:17:23.847Z,29.40
2022-08-03T14:27:27.329Z,29.80
2022-08-03T14:37:29.280Z,30.00
2022-08-03T14:47:32.804Z,29.90
2022-08-03T14:57:54.764Z,29.90
2022-08-03T15:07:58.101Z,30.20
2022-08-03T15:18:00.964Z,28.90
2022-08-03T15:28:04.869Z,29.20
2022-08-03T15:38:09.505Z,29.40
2022-08-03T15:48:13.187Z,29.30
2022-08-03T15:59:03.349Z,28.80
2022-08-03T16:08:38.543Z,28.80
2022-08-03T16:18:40.565Z,28.40
2022-08-03T16:28:43.960Z,28.60
2022-08-03T16:38:45.953Z,28.70
2022-08-03T16:48:49.281Z,28.10
2022-08-03T16:58:51.309Z,28.00
2022-08-03T17:08:56.230Z,27.80
2022-08-03T17:30:14.453Z,27.60
2022-08-03T17:40:17.998Z,27.20
2022-08-03T18:00:45.641Z,26.60
2022-08-03T18:10:51.131Z,26.50
2022-08-03T18:20:53.562Z,26.20
2022-08-03T18:30:57.607Z,26.10
2022-08-03T18:40:59.562Z,25.80
2022-08-03T18:51:09.624Z,25.60
2022-08-03T19:01:59.952Z,25.30
2022-08-03T19:12:10.985Z,25.20
2022-08-03T19:22:10.607Z,24.90
2022-08-03T19:32:16.738Z,24.70
2022-08-03T19:42:25.111Z,24.50
2022-08-03T19:52:35.757Z,24.30
2022-08-03T20:02:39.865Z,24.10
2022-08-03T20:12:45.938Z,23.90
2022-08-03T20:22:48.438Z,23.70
2022-08-03T20:32:52.201Z,23.50
2022-08-03T20:45:06.176Z,23.40
2022-08-03T20:54:22.829Z,23.20
2022-08-03T21:04:31.030Z,23.00
2022-08-03T21:12:55.448Z,27.00
2022-08-03T21:14:42.928Z,22.80
2022-08-03T21:24:46.299Z,22.70
2022-08-03T21:34:51.309Z,22.70
2022-08-03T21:44:53.936Z,22.50
2022-08-03T21:55:01.069Z,22.40
2022-08-03T22:05:05.206Z,22.20
2022-08-03T22:15:13.143Z,22.00
2022-08-03T22:25:16.244Z,21.90
2022-08-03T22:35:21.208Z,21.80
2022-08-03T22:46:06.171Z,21.60
2022-08-03T22:55:48.408Z,21.40
2022-08-03T23:06:00.348Z,21.30
2022-08-03T23:16:06.944Z,21.10
2022-08-03T23:26:09.206Z,21.00
2022-08-03T23:36:31.037Z,20.90
2022-08-03T23:46:35.900Z,20.80
2022-08-03T23:56:54.025Z,20.70
